createdAt,value
2022-10-13T00:00:57.821Z,6.50
2022-10-13T00:03:25.106Z,6.60
2022-10-13T00:05:52.158Z,6.50
2022-10-13T00:08:21.614Z,6.40
2022-10-13T00:10:50.727Z,6.30
2022-10-13T00:13:20.810Z,6.40
2022-10-13T00:15:48.238Z,6.40
2022-10-13T00:18:16.075Z,6.50
2022-10-13T00:20:48.067Z,6.60
2022-10-13T00:23:15.593Z,6.60
2022-10-13T00:25:47.497Z,6.70
2022-10-13T00:28:15.321Z,6.80
2022-10-13T00:30:43.031Z,6.70
2022-10-13T00:33:13.077Z,6.80
2022-10-13T00:35:45.082Z,6.70
2022-10-13T00:38:15.702Z,6.70
2022-10-13T00:40:54.447Z,6.50
2022-10-13T00:43:25.032Z,6.50
2022-10-13T00:45:53.009Z,6.40
2022-10-13T00:48:30.343Z,6.50
2022-10-13T00:50:58.486Z,6.30
2022-10-13T00:53:30.579Z,6.10
2022-10-13T00:55:57.231Z,6.10
2022-10-13T00:58:26.114Z,6.00
2022-10-13T01:00:53.312Z,5.90
2022-10-13T01:03:21.151Z,5.90
2022-10-13T01:05:50.209Z,5.90
2022-10-13T01:08:18.724Z,5.80
2022-10-13T01:11:03.466Z,5.80
2022-10-13T01:13:43.616Z,5.80
2022-10-13T01:16:17.671Z,5.80
2022-10-13T01:18:59.798Z,5.70
2022-10-13T01:21:44.769Z,5.70
2022-10-13T01:24:39.240Z,5.60
2022-10-13T01:27:24.706Z,5.60
2022-10-13T01:30:05.801Z,5.60
2022-10-13T01:32:36.730Z,5.60
2022-10-13T01:35:31.174Z,5.50
2022-10-13T01:38:03.556Z,5.50
2022-10-13T01:40:46.369Z,5.50
2022-10-13T01:43:20.034Z,5.50
2022-10-13T01:46:00.392Z,5.40
2022-10-13T01:48:28.668Z,5.30
2022-10-13T01:50:58.349Z,5.40
2022-10-13T01:53:25.975Z,5.50
2022-10-13T01:55:59.528Z,5.60
2022-10-13T01:58:29.823Z,5.60
2022-10-13T02:01:21.899Z,5.80
2022-10-13T02:04:03.108Z,5.70
2022-10-13T02:06:57.752Z,5.70
2022-10-13T02:09:30.577Z,5.80
2022-10-13T02:12:07.030Z,5.80
2022-10-13T02:14:38.187Z,5.80
2022-10-13T02:17:05.608Z,5.90
2022-10-13T02:19:37.465Z,6.10
2022-10-13T02:22:05.895Z,6.10
2022-10-13T02:24:33.103Z,6.20
2022-10-13T02:27:00.016Z,6.20
2022-10-13T02:29:26.778Z,6.30
2022-10-13T02:31:54.753Z,6.20
2022-10-13T02:34:21.440Z,6.40
2022-10-13T02:36:48.303Z,6.60
2022-10-13T02:39:15.540Z,6.50
2022-10-13T02:41:42.141Z,6.40
2022-10-13T02:44:09.024Z,6.50
2022-10-13T02:46:41.055Z,6.50
2022-10-13T02:49:07.741Z,6.60
2022-10-13T02:51:39.669Z,6.50
2022-10-13T02:54:07.092Z,6.70
2022-10-13T02:56:33.804Z,6.90
2022-10-13T02:59:00.439Z,6.90
2022-10-13T03:01:27.143Z,7.10
2022-10-13T03:03:54.009Z,7.00
2022-10-13T03:06:20.920Z,7.20
2022-10-13T03:08:48.054Z,7.20
2022-10-13T03:11:14.742Z,7.30
2022-10-13T03:13:41.495Z,7.60
2022-10-13T03:16:08.762Z,7.60
2022-10-13T03:18:35.413Z,7.40
2022-10-13T03:21:07.022Z,7.40
2022-10-13T03:23:36.891Z,7.50
2022-10-13T03:26:04.465Z,7.40
2022-10-13T03:28:31.385Z,7.40
2022-10-13T03:31:07.379Z,7.40
2022-10-13T03:33:34.170Z,7.40
2022-10-13T03:36:02.208Z,7.60
2022-10-13T03:38:33.658Z,7.50
2022-10-13T03:41:08.838Z,7.50
2022-10-13T03:43:36.268Z,7.50
2022-10-13T03:46:05.845Z,7.60
2022-10-13T03:48:34.401Z,7.60
2022-10-13T03:51:08.646Z,7.60
2022-10-13T03:53:35.683Z,7.50
2022-10-13T03:56:03.192Z,7.50
2022-10-13T03:58:33.769Z,7.50
2022-10-13T04:01:06.870Z,7.80
2022-10-13T04:03:34.287Z,8.00
2022-10-13T04:06:02.560Z,8.00
2022-10-13T04:08:30.867Z,7.80
2022-10-13T04:11:02.921Z,7.70
2022-10-13T04:13:29.789Z,7.80
2022-10-13T04:15:56.492Z,7.70
2022-10-13T04:18:23.164Z,7.80
2022-10-13T04:20:50.134Z,7.80
2022-10-13T04:23:16.812Z,7.80
2022-10-13T04:25:47.567Z,7.80
2022-10-13T04:28:14.359Z,7.80
2022-10-13T04:30:43.711Z,7.90
2022-10-13T04:33:13.785Z,8.00
2022-10-13T04:35:43.420Z,8.00
2022-10-13T04:38:10.088Z,8.00
2022-10-13T04:40:36.715Z,8.10
2022-10-13T04:43:03.594Z,8.20
2022-10-13T04:45:30.382Z,8.20
2022-10-13T04:47:57.232Z,8.20
2022-10-13T04:50:23.848Z,8.20
2022-10-13T04:52:59.159Z,8.20
2022-10-13T04:55:25.856Z,8.20
2022-10-13T04:57:52.496Z,8.10
2022-10-13T05:00:19.316Z,8.10
2022-10-13T05:02:46.100Z,8.00
2022-10-13T05:05:12.802Z,8.00
2022-10-13T05:07:39.427Z,8.00
2022-10-13T05:10:06.260Z,8.10
2022-10-13T05:12:33.009Z,8.10
2022-10-13T05:14:59.717Z,8.10
2022-10-13T05:17:26.369Z,8.20
2022-10-13T05:19:53.002Z,8.20
2022-10-13T05:22:19.843Z,8.10
2022-10-13T05:24:47.288Z,8.10
2022-10-13T05:27:14.186Z,8.00
2022-10-13T05:29:41.162Z,7.90
2022-10-13T05:32:08.397Z,7.90
2022-10-13T05:34:35.124Z,8.00
2022-10-13T05:37:02.016Z,8.10
2022-10-13T05:39:28.738Z,7.90
2022-10-13T05:41:55.373Z,7.90
2022-10-13T05:44:22.144Z,7.90
2022-10-13T05:46:55.524Z,7.90
2022-10-13T05:49:22.585Z,7.80
2022-10-13T05:51:52.712Z,7.90
2022-10-13T05:54:25.949Z,8.00
2022-10-13T05:57:32.407Z,8.00
2022-10-13T06:00:11.387Z,7.90
2022-10-13T06:02:56.272Z,8.00
2022-10-13T06:05:25.839Z,8.00
2022-10-13T06:07:53.759Z,8.20
2022-10-13T06:10:20.710Z,8.30
2022-10-13T06:12:47.701Z,8.20
2022-10-13T06:15:14.402Z,8.30
2022-10-13T06:17:41.083Z,8.30
2022-10-13T06:20:08.881Z,8.20
2022-10-13T06:22:38.830Z,8.30
2022-10-13T06:25:07.188Z,8.30
2022-10-13T06:27:34.455Z,8.30
2022-10-13T06:30:01.134Z,8.50
2022-10-13T06:32:29.792Z,8.50
2022-10-13T06:34:56.394Z,8.60
2022-10-13T06:37:27.172Z,8.80
2022-10-13T06:39:54.299Z,8.90
2022-10-13T06:42:21.483Z,8.90
2022-10-13T06:45:05.081Z,8.90
2022-10-13T06:47:31.713Z,8.90
2022-10-13T06:49:58.361Z,8.90
2022-10-13T06:52:25.105Z,8.90
2022-10-13T06:54:51.732Z,9.00
2022-10-13T06:57:18.372Z,9.10
2022-10-13T06:59:45.091Z,9.20
2022-10-13T07:02:11.911Z,9.30
2022-10-13T07:04:38.603Z,9.30
2022-10-13T07:07:05.210Z,9.30
2022-10-13T07:09:31.920Z,9.40
2022-10-13T07:11:59.379Z,9.50
2022-10-13T07:14:26.259Z,9.50
2022-10-13T07:16:53.309Z,9.50
2022-10-13T07:19:20.044Z,9.60
2022-10-13T07:21:46.744Z,9.60
2022-10-13T07:24:13.408Z,9.60
2022-10-13T07:26:40.101Z,9.80
2022-10-13T07:29:07.933Z,9.70
2022-10-13T07:31:34.639Z,9.80
2022-10-13T07:34:01.668Z,9.90
2022-10-13T07:36:28.553Z,9.90
2022-10-13T07:38:55.186Z,9.90
2022-10-13T07:41:21.829Z,10.10
2022-10-13T07:43:48.481Z,10.00
2022-10-13T07:46:16.290Z,10.10
2022-10-13T07:48:43.021Z,10.20
2022-10-13T07:51:12.833Z,10.20
2022-10-13T07:53:42.972Z,10.30
2022-10-13T07:56:11.962Z,10.40
2022-10-13T07:58:40.174Z,10.50
2022-10-13T08:01:07.099Z,10.60
2022-10-13T08:03:44.190Z,10.60
2022-10-13T08:06:16.784Z,10.50
2022-10-13T08:08:43.404Z,10.60
2022-10-13T08:11:16.478Z,10.70
2022-10-13T08:13:50.458Z,10.90
2022-10-13T08:16:23.560Z,11.00
2022-10-13T08:18:50.496Z,11.10
2022-10-13T08:24:14.487Z,11.20
2022-10-13T08:26:42.127Z,11.30
2022-10-13T08:29:21.344Z,11.30
2022-10-13T08:34:23.505Z,11.40
2022-10-13T08:36:55.173Z,11.40
2022-10-13T08:39:25.348Z,11.40
2022-10-13T08:41:52.830Z,11.60
2022-10-13T08:45:10.958Z,11.70
2022-10-13T08:47:26.769Z,12.10
2022-10-13T08:50:02.920Z,12.50
2022-10-13T08:52:43.230Z,12.80
2022-10-13T08:55:38.844Z,12.80
2022-10-13T08:58:14.536Z,12.90
2022-10-13T09:00:41.694Z,13.00
2022-10-13T09:03:23.696Z,13.00
2022-10-13T09:05:58.569Z,13.00
2022-10-13T09:08:29.210Z,13.30
2022-10-13T09:10:55.873Z,13.40
2022-10-13T09:13:25.777Z,13.40
2022-10-13T09:15:53.936Z,13.40
2022-10-13T09:18:28.982Z,13.60
2022-10-13T09:21:15.408Z,14.00
2022-10-13T09:23:42.247Z,14.20
2022-10-13T09:26:15.610Z,14.40
2022-10-13T09:28:42.564Z,14.50
2022-10-13T09:31:17.507Z,14.60
2022-10-13T09:33:45.778Z,14.70
2022-10-13T09:36:15.404Z,14.80
2022-10-13T09:39:06.611Z,14.80
2022-10-13T09:41:35.225Z,14.80
2022-10-13T09:44:12.040Z,14.80
2022-10-13T09:46:51.555Z,14.90
2022-10-13T09:49:41.312Z,15.20
2022-10-13T09:52:16.814Z,15.40
2022-10-13T09:55:13.424Z,15.70
2022-10-13T09:57:47.507Z,16.10
2022-10-13T10:00:21.735Z,16.30
2022-10-13T10:03:18.402Z,16.40
2022-10-13T10:05:55.344Z,16.20
2022-10-13T10:09:03.687Z,16.20
2022-10-13T10:11:38.272Z,16.30
2022-10-13T10:14:14.268Z,16.30
2022-10-13T10:16:58.126Z,16.30
2022-10-13T10:19:43.501Z,16.30
2022-10-13T10:22:10.055Z,16.30
2022-10-13T10:24:55.295Z,16.50
2022-10-13T10:27:29.523Z,16.50
2022-10-13T10:30:05.646Z,16.40
2022-10-13T10:33:09.489Z,16.20
2022-10-13T10:36:05.532Z,16.00
2022-10-13T10:38:43.961Z,16.10
2022-10-13T10:41:38.124Z,16.10
2022-10-13T10:44:10.032Z,16.30
2022-10-13T10:46:42.159Z,16.40
2022-10-13T10:49:33.448Z,16.60
2022-10-13T10:52:05.778Z,16.70
2022-10-13T10:54:46.466Z,16.80
2022-10-13T10:57:33.400Z,16.90
2022-10-13T11:00:15.069Z,17.00
2022-10-13T11:03:07.819Z,17.00
2022-10-13T11:06:00.710Z,17.00
2022-10-13T11:08:28.635Z,16.90
2022-10-13T11:11:24.746Z,16.80
2022-10-13T11:13:55.369Z,16.70
2022-10-13T11:16:39.110Z,16.60
2022-10-13T11:19:37.916Z,16.50
2022-10-13T11:22:05.151Z,16.40
2022-10-13T11:24:42.305Z,16.40
2022-10-13T11:27:40.065Z,16.50
2022-10-13T11:30:26.745Z,16.60
2022-10-13T11:32:56.816Z,16.70
2022-10-13T11:35:26.130Z,16.80
2022-10-13T11:38:07.209Z,17.00
2022-10-13T11:41:05.603Z,17.10
2022-10-13T11:44:14.337Z,17.40
2022-10-13T11:47:05.041Z,17.50
2022-10-13T11:50:02.159Z,17.80
2022-10-13T11:52:53.937Z,17.80
2022-10-13T11:55:45.674Z,17.70
2022-10-13T11:58:28.970Z,17.60
2022-10-13T12:01:06.649Z,17.40
2022-10-13T12:03:36.822Z,17.30
2022-10-13T12:06:07.689Z,17.30
2022-10-13T12:08:36.935Z,17.20
2022-10-13T12:11:07.445Z,17.20
2022-10-13T12:13:37.713Z,17.10
2022-10-13T12:16:06.500Z,17.20
2022-10-13T12:18:38.997Z,17.30
2022-10-13T12:21:17.325Z,17.30
2022-10-13T12:23:44.197Z,17.10
2022-10-13T12:26:19.481Z,17.10
2022-10-13T12:28:51.267Z,17.10
2022-10-13T12:31:24.582Z,17.10
2022-10-13T12:33:56.269Z,17.00
2022-10-13T12:36:30.071Z,17.10
2022-10-13T12:39:01.445Z,17.10
2022-10-13T12:41:31.632Z,17.20
2022-10-13T12:44:01.157Z,17.40
2022-10-13T12:46:42.790Z,17.20
2022-10-13T12:49:16.112Z,17.10
2022-10-13T12:51:50.339Z,16.90
2022-10-13T12:54:24.270Z,17.10
2022-10-13T12:56:55.405Z,17.30
2022-10-13T12:59:24.542Z,17.20
2022-10-13T13:02:03.883Z,17.10
2022-10-13T13:04:43.194Z,17.10
2022-10-13T13:07:29.945Z,17.10
2022-10-13T13:10:08.795Z,17.10
2022-10-13T13:12:37.835Z,17.10
2022-10-13T13:15:19.269Z,17.00
2022-10-13T13:17:57.832Z,16.80
2022-10-13T13:20:32.125Z,16.80
2022-10-13T13:22:59.620Z,16.60
2022-10-13T13:25:26.982Z,16.50
2022-10-13T13:27:54.152Z,16.60
2022-10-13T13:30:22.712Z,16.50
2022-10-13T13:32:49.934Z,16.50
2022-10-13T13:35:16.848Z,16.50
2022-10-13T13:37:49.703Z,16.50
2022-10-13T13:40:25.112Z,16.50
2022-10-13T13:42:52.345Z,16.40
2022-10-13T13:45:21.683Z,16.50
2022-10-13T13:47:49.495Z,16.50
2022-10-13T13:50:23.582Z,16.50
2022-10-13T13:52:56.485Z,16.50
2022-10-13T13:55:23.450Z,16.50
2022-10-13T13:57:50.099Z,16.60
2022-10-13T14:00:17.260Z,16.70
2022-10-13T14:02:47.219Z,16.80
2022-10-13T14:05:14.988Z,16.70
2022-10-13T14:07:41.688Z,16.80
2022-10-13T14:10:09.122Z,16.70
2022-10-13T14:12:36.626Z,16.80
2022-10-13T14:15:03.883Z,16.80
2022-10-13T14:17:33.044Z,16.90
2022-10-13T14:20:00.576Z,16.90
2022-10-13T14:22:27.474Z,16.90
2022-10-13T14:24:54.282Z,16.80
2022-10-13T14:27:23.118Z,16.70
2022-10-13T14:29:49.746Z,16.80
2022-10-13T14:32:16.591Z,16.60
2022-10-13T14:34:43.185Z,16.40
2022-10-13T14:37:09.790Z,16.20
2022-10-13T14:39:36.461Z,16.20
2022-10-13T14:42:03.208Z,16.10
2022-10-13T14:44:29.827Z,16.00
2022-10-13T14:46:56.551Z,16.00
2022-10-13T14:49:23.719Z,15.90
2022-10-13T14:51:50.506Z,15.80
2022-10-13T14:54:17.992Z,15.80
2022-10-13T14:56:44.832Z,15.80
2022-10-13T14:59:12.445Z,15.70
2022-10-13T15:01:41.394Z,15.60
2022-10-13T15:04:08.362Z,15.60
2022-10-13T15:06:35.659Z,15.50
2022-10-13T15:09:02.321Z,15.30
2022-10-13T15:11:29.042Z,15.30
2022-10-13T15:13:56.367Z,15.30
2022-10-13T15:16:26.113Z,15.20
2022-10-13T15:18:52.796Z,15.20
2022-10-13T15:21:19.965Z,15.20
2022-10-13T15:23:47.117Z,15.10
2022-10-13T15:26:16.129Z,15.10
2022-10-13T15:28:45.726Z,15.10
2022-10-13T15:31:14.197Z,15.10
2022-10-13T15:33:46.209Z,15.00
2022-10-13T15:36:13.043Z,14.90
2022-10-13T15:38:40.190Z,14.80
2022-10-13T15:41:07.081Z,14.70
2022-10-13T15:43:34.500Z,14.60
2022-10-13T15:46:07.959Z,14.50
2022-10-13T15:48:35.236Z,14.40
2022-10-13T15:51:02.099Z,14.40
2022-10-13T15:53:29.839Z,14.30
2022-10-13T15:55:56.455Z,14.30
2022-10-13T15:58:23.096Z,14.20
2022-10-13T16:00:49.765Z,14.10
2022-10-13T16:03:18.431Z,14.10
2022-10-13T16:05:46.298Z,14.10
2022-10-13T16:08:14.091Z,14.00
2022-10-13T16:10:42.090Z,13.90
2022-10-13T16:13:12.196Z,13.90
2022-10-13T16:15:38.918Z,13.80
2022-10-13T16:18:05.780Z,13.70
2022-10-13T16:20:35.009Z,13.60
2022-10-13T16:23:01.762Z,13.60
2022-10-13T16:25:29.231Z,13.50
2022-10-13T16:27:56.447Z,13.50
2022-10-13T16:30:23.154Z,13.50
2022-10-13T16:32:49.824Z,13.50
2022-10-13T16:35:16.470Z,13.50
2022-10-13T16:37:43.155Z,13.50
2022-10-13T16:40:10.242Z,13.50
2022-10-13T16:42:37.988Z,13.50
2022-10-13T16:45:05.301Z,13.50
2022-10-13T16:47:31.936Z,13.50
2022-10-13T16:49:58.556Z,13.50
2022-10-13T16:52:25.219Z,13.50
2022-10-13T16:54:52.191Z,13.40
2022-10-13T16:57:19.180Z,13.40
2022-10-13T16:59:49.002Z,13.30
2022-10-13T17:02:15.709Z,13.20
2022-10-13T17:04:43.072Z,13.20
2022-10-13T17:07:09.818Z,13.10
2022-10-13T17:09:36.463Z,13.10
2022-10-13T17:12:04.068Z,13.00
2022-10-13T17:14:30.959Z,13.10
2022-10-13T17:16:58.263Z,13.10
2022-10-13T17:19:25.911Z,13.10
2022-10-13T17:21:52.592Z,13.10
2022-10-13T17:24:19.244Z,13.10
2022-10-13T17:26:46.002Z,13.10
2022-10-13T17:29:12.678Z,13.00
2022-10-13T17:31:39.292Z,12.90
2022-10-13T17:34:06.234Z,12.90
2022-10-13T17:36:33.949Z,12.90
2022-10-13T17:39:08.830Z,12.90
2022-10-13T17:41:39.636Z,12.80
2022-10-13T17:44:06.323Z,12.80
2022-10-13T17:46:38.367Z,12.70
2022-10-13T17:49:09.093Z,12.60
2022-10-13T17:51:35.787Z,12.60
2022-10-13T17:54:03.301Z,12.70
2022-10-13T17:56:30.073Z,12.70
2022-10-13T17:58:56.801Z,12.60
2022-10-13T18:01:29.176Z,12.60
2022-10-13T18:03:58.006Z,12.50
2022-10-13T18:06:35.156Z,12.50
2022-10-13T18:09:10.696Z,12.60
2022-10-13T18:11:38.388Z,12.50
2022-10-13T18:14:05.941Z,12.60
2022-10-13T18:16:33.004Z,12.50
2022-10-13T18:18:59.673Z,12.50
2022-10-13T18:21:26.725Z,12.50
2022-10-13T18:23:55.704Z,12.40
2022-10-13T18:26:23.542Z,12.30
2022-10-13T18:28:50.648Z,12.20
2022-10-13T18:31:23.328Z,12.20
2022-10-13T18:33:55.776Z,12.30
2022-10-13T18:36:23.838Z,12.20
2022-10-13T18:38:51.290Z,12.30
2022-10-13T18:41:20.379Z,12.30
2022-10-13T18:43:50.624Z,12.10
2022-10-13T18:46:18.856Z,12.00
2022-10-13T18:48:48.017Z,12.10
2022-10-13T18:51:17.182Z,11.90
2022-10-13T18:53:46.740Z,12.00
2022-10-13T18:56:13.683Z,11.90
2022-10-13T18:58:40.609Z,12.00
2022-10-13T19:01:10.575Z,12.00
2022-10-13T19:03:39.292Z,12.00
2022-10-13T19:06:08.263Z,12.00
2022-10-13T19:08:36.455Z,12.00
2022-10-13T19:11:15.547Z,12.00
2022-10-13T19:13:42.619Z,12.00
2022-10-13T19:16:09.915Z,12.00
2022-10-13T19:18:36.950Z,12.00
2022-10-13T19:21:03.914Z,12.00
2022-10-13T19:23:30.725Z,11.90
2022-10-13T19:26:11.153Z,11.90
2022-10-13T19:28:41.085Z,11.90
2022-10-13T19:31:16.382Z,11.90
2022-10-13T19:33:44.959Z,11.90
2022-10-13T19:36:22.890Z,11.90
2022-10-13T19:38:50.760Z,11.90
2022-10-13T19:41:19.566Z,11.80
2022-10-13T19:43:46.194Z,11.80
2022-10-13T19:46:12.869Z,11.90
2022-10-13T19:48:39.515Z,11.90
2022-10-13T19:51:08.998Z,11.90
2022-10-13T19:53:37.038Z,11.90
2022-10-13T19:56:04.669Z,11.80
2022-10-13T19:58:31.774Z,11.80
2022-10-13T20:01:05.321Z,11.80
2022-10-13T20:03:32.295Z,11.80
2022-10-13T20:05:58.944Z,11.80
2022-10-13T20:08:25.858Z,11.80
2022-10-13T20:10:52.478Z,11.80
2022-10-13T20:13:19.161Z,11.80
2022-10-13T20:15:47.804Z,11.80
2022-10-13T20:18:14.479Z,11.80
2022-10-13T20:20:41.901Z,11.70
2022-10-13T20:23:09.085Z,11.80
2022-10-13T20:25:38.903Z,11.80
2022-10-13T20:28:06.438Z,11.70
2022-10-13T20:30:33.517Z,11.80
2022-10-13T20:33:00.732Z,11.90
2022-10-13T20:35:27.675Z,11.80
2022-10-13T20:37:54.380Z,11.80
2022-10-13T20:40:21.240Z,11.80
2022-10-13T20:42:54.407Z,11.80
2022-10-13T20:45:21.105Z,11.80
2022-10-13T20:47:48.592Z,11.80
2022-10-13T20:50:15.492Z,11.90
2022-10-13T20:52:42.155Z,12.00
2022-10-13T20:55:09.280Z,12.00
2022-10-13T20:57:36.842Z,12.00
2022-10-13T21:00:05.271Z,12.00
2022-10-13T21:02:32.402Z,12.00
2022-10-13T21:04:58.993Z,11.90
2022-10-13T21:07:25.660Z,11.90
2022-10-13T21:09:55.291Z,12.00
2022-10-13T21:12:21.947Z,12.00
2022-10-13T21:14:48.679Z,12.00
2022-10-13T21:17:15.308Z,12.10
2022-10-13T21:19:41.902Z,12.20
2022-10-13T21:22:08.542Z,12.20
2022-10-13T21:24:35.469Z,12.20
2022-10-13T21:27:02.114Z,12.30
2022-10-13T21:29:28.947Z,12.20
2022-10-13T21:31:55.554Z,12.20
2022-10-13T21:34:22.182Z,12.20
2022-10-13T21:36:48.807Z,12.20
2022-10-13T21:39:15.482Z,12.20
2022-10-13T21:41:42.179Z,12.20
2022-10-13T21:44:13.510Z,12.20
2022-10-13T21:46:40.285Z,12.30
2022-10-13T21:49:06.996Z,12.20
2022-10-13T21:51:39.369Z,12.20
2022-10-13T21:54:08.806Z,12.20
2022-10-13T21:56:36.598Z,12.20
2022-10-13T21:59:04.225Z,12.10
2022-10-13T22:01:31.019Z,12.10
2022-10-13T22:04:00.592Z,12.10
2022-10-13T22:06:29.017Z,12.10
2022-10-13T22:08:57.492Z,12.10
2022-10-13T22:11:26.606Z,12.10
2022-10-13T22:13:55.277Z,12.10
2022-10-13T22:16:25.095Z,12.10
2022-10-13T22:18:52.745Z,12.10
2022-10-13T22:21:22.129Z,12.10
2022-10-13T22:23:49.390Z,12.10
2022-10-13T22:26:17.934Z,12.10
2022-10-13T22:28:48.070Z,12.20
2022-10-13T22:31:14.951Z,12.10
2022-10-13T22:33:42.840Z,12.10
2022-10-13T22:36:11.915Z,12.20
2022-10-13T22:38:39.638Z,12.20
2022-10-13T22:41:08.421Z,12.20
2022-10-13T22:43:36.431Z,12.10
2022-10-13T22:46:17.689Z,12.10
2022-10-13T22:48:44.653Z,12.10
2022-10-13T22:51:20.266Z,12.00
2022-10-13T22:53:50.437Z,12.00
2022-10-13T22:56:20.358Z,11.90
2022-10-13T22:58:51.718Z,11.90
2022-10-13T23:01:19.371Z,11.90
2022-10-13T23:03:51.113Z,11.90
2022-10-13T23:06:20.857Z,11.90
2022-10-13T23:08:50.197Z,11.90
2022-10-13T23:11:17.580Z,11.90
2022-10-13T23:13:44.628Z,11.90
2022-10-13T23:16:18.046Z,11.90
2022-10-13T23:18:45.053Z,11.90
2022-10-13T23:21:26.676Z,11.90
2022-10-13T23:23:58.332Z,12.00
2022-10-13T23:26:25.758Z,12.00
2022-10-13T23:28:54.846Z,12.00
2022-10-13T23:31:21.614Z,12.00
2022-10-13T23:33:48.572Z,12.00
2022-10-13T23:36:18.169Z,11.90
2022-10-13T23:38:48.515Z,12.00
2022-10-13T23:41:16.498Z,11.90
2022-10-13T23:43:43.267Z,11.90
2022-10-13T23:46:10.906Z,11.90
2022-10-13T23:48:38.762Z,11.80
2022-10-13T23:51:11.572Z,11.90
2022-10-13T23:53:38.889Z,11.90
2022-10-13T23:56:07.277Z,11.90
2022-10-13T23:58:36.532Z,11.90
